Waddams Grove, Illinois
Current Conditions -  °F | °C
As of 2:15 AM on Sunday 26 Oct 2014 (Local Time) from KFEP Reporting Station
Clear Clear  
Wind Chill: 35°   Ceiling: Unl
Heat Index: 39°   Visibility: 10mi
Dew Point: 30°   Wind: 6mph
Humidity: 70%   Direction: 270°W
Pressure: 30.05"   Gusts: NA
Location:  42.3875°N, 89.8373°W
Report Text: KFEP 260715Z AUTO 27005KT 10SM CLR 04/M01 A3005 RMK AO2 T00411009
Loading
Personal Weather Stations






























Interactive Weather Map
Tropical Storm Tracking
New forecast layout! Learn more

10-Day Weather Forecast

Advertisements
Track Severe Weather on mobile